createdAt,value
2017-08-14T00:01:08.950Z,91.50
2017-08-14T00:03:36.415Z,91.50
2017-08-14T00:06:03.882Z,91.30
2017-08-14T00:08:31.344Z,91.20
2017-08-14T00:10:58.935Z,91.30
2017-08-14T00:13:27.192Z,91.10
2017-08-14T00:15:54.692Z,91.10
2017-08-14T00:18:22.155Z,91.00
2017-08-14T00:20:49.628Z,91.00
2017-08-14T00:23:17.116Z,91.00
2017-08-14T00:25:44.585Z,91.30
2017-08-14T00:28:12.811Z,91.40
2017-08-14T00:30:40.287Z,91.50
2017-08-14T00:33:07.772Z,91.40
2017-08-14T00:35:35.228Z,91.20
2017-08-14T00:38:02.687Z,91.10
2017-08-14T00:40:30.165Z,91.00
2017-08-14T00:42:58.399Z,90.80
2017-08-14T00:45:25.873Z,90.70
2017-08-14T00:47:53.335Z,90.70
2017-08-14T00:50:20.804Z,90.80
2017-08-14T00:52:48.263Z,90.80
2017-08-14T00:55:16.502Z,90.80
2017-08-14T00:57:43.968Z,90.50
2017-08-14T01:00:11.446Z,90.50
2017-08-14T01:02:38.963Z,90.70
2017-08-14T01:05:06.457Z,90.90
2017-08-14T01:07:33.926Z,90.90
2017-08-14T01:10:01.387Z,91.00
2017-08-14T01:12:28.855Z,91.00
2017-08-14T01:14:57.087Z,90.90
2017-08-14T01:17:24.558Z,90.80
2017-08-14T01:19:52.015Z,90.90
2017-08-14T01:22:19.481Z,91.10
2017-08-14T01:24:46.940Z,90.90
2017-08-14T01:27:15.267Z,90.80
2017-08-14T01:29:42.720Z,90.90
2017-08-14T01:32:10.190Z,91.00
2017-08-14T01:34:37.644Z,91.00
2017-08-14T01:37:05.131Z,91.40
2017-08-14T01:39:32.596Z,91.30
2017-08-14T01:42:00.079Z,91.00
2017-08-14T01:44:27.536Z,91.00
2017-08-14T01:46:55.003Z,91.00
2017-08-14T01:49:22.458Z,91.00
2017-08-14T01:51:50.695Z,90.90
2017-08-14T01:54:18.160Z,90.90
2017-08-14T01:56:45.622Z,91.00
2017-08-14T01:59:13.092Z,91.10
2017-08-14T02:01:40.554Z,91.10
2017-08-14T02:04:08.014Z,90.90
2017-08-14T02:06:35.536Z,90.90
2017-08-14T02:09:02.991Z,90.90
2017-08-14T02:11:30.451Z,90.90
2017-08-14T02:13:57.918Z,90.80
2017-08-14T02:16:25.374Z,90.80
2017-08-14T02:18:52.842Z,91.00
2017-08-14T02:21:20.298Z,91.20
2017-08-14T02:23:47.766Z,91.10
2017-08-14T02:26:15.220Z,91.40
2017-08-14T02:28:42.688Z,91.50
2017-08-14T02:31:10.153Z,91.30
2017-08-14T02:33:37.626Z,91.20
2017-08-14T02:36:05.084Z,91.10
2017-08-14T02:38:33.319Z,91.10
2017-08-14T02:41:00.786Z,91.20
2017-08-14T02:43:28.243Z,91.30
2017-08-14T02:45:55.707Z,91.20
2017-08-14T02:48:23.193Z,91.10
2017-08-14T02:50:51.422Z,91.10
2017-08-14T02:53:18.891Z,91.00
2017-08-14T02:55:46.351Z,91.20
2017-08-14T02:58:13.806Z,91.10
2017-08-14T03:00:41.276Z,90.90
2017-08-14T03:03:08.735Z,91.10
2017-08-14T03:05:36.206Z,91.00
2017-08-14T03:08:03.668Z,90.90
2017-08-14T03:10:31.904Z,91.40
2017-08-14T03:12:59.378Z,91.10
2017-08-14T03:15:26.851Z,91.10
2017-08-14T03:17:54.307Z,91.10
2017-08-14T03:20:21.774Z,91.20
2017-08-14T03:22:49.997Z,91.10
2017-08-14T03:25:17.462Z,91.10
2017-08-14T03:27:44.918Z,91.00
2017-08-14T03:30:12.395Z,91.10
2017-08-14T03:32:39.859Z,91.00
2017-08-14T03:35:07.334Z,91.00
2017-08-14T03:37:35.560Z,90.80
2017-08-14T03:40:03.017Z,90.90
2017-08-14T03:42:30.480Z,90.70
2017-08-14T03:44:57.998Z,90.60
2017-08-14T03:47:26.235Z,90.70
2017-08-14T03:49:53.686Z,90.70
2017-08-14T03:52:21.155Z,91.00
2017-08-14T03:54:48.622Z,91.00
2017-08-14T03:57:16.083Z,90.90
2017-08-14T03:59:43.546Z,90.80
2017-08-14T04:02:11.012Z,90.90
2017-08-14T04:04:39.243Z,91.10
2017-08-14T04:07:06.715Z,90.90
2017-08-14T04:09:34.174Z,90.80
2017-08-14T04:12:01.649Z,90.80
2017-08-14T04:14:29.103Z,90.80
2017-08-14T04:16:56.937Z,90.90
2017-08-14T04:19:24.399Z,90.90
2017-08-14T04:21:51.875Z,91.00
2017-08-14T04:24:19.375Z,91.00
2017-08-14T04:26:47.606Z,91.20
2017-08-14T04:29:15.063Z,91.20
2017-08-14T04:31:42.547Z,91.20
2017-08-14T04:34:10.007Z,91.50
2017-08-14T04:36:38.239Z,91.90
2017-08-14T04:39:05.712Z,92.00
2017-08-14T04:41:33.179Z,92.00
2017-08-14T04:44:00.644Z,91.90
2017-08-14T04:46:28.105Z,91.80
2017-08-14T04:48:55.566Z,91.90
2017-08-14T04:51:23.039Z,91.90
2017-08-14T04:53:51.271Z,92.40
2017-08-14T04:56:20.265Z,92.40
2017-08-14T04:58:47.735Z,92.50
2017-08-14T05:01:15.196Z,92.80
2017-08-14T05:03:42.663Z,93.30
2017-08-14T05:06:10.131Z,93.70
2017-08-14T05:08:37.592Z,93.70
2017-08-14T05:11:05.048Z,93.60
2017-08-14T05:13:32.510Z,93.60
2017-08-14T05:15:59.980Z,93.40
2017-08-14T05:18:28.216Z,93.50
2017-08-14T05:20:55.740Z,93.50
2017-08-14T05:23:23.305Z,93.50
2017-08-14T05:25:50.768Z,93.40
2017-08-14T05:28:18.227Z,93.20
2017-08-14T05:30:45.699Z,93.20
2017-08-14T05:33:13.159Z,93.20
2017-08-14T05:35:40.622Z,93.40
2017-08-14T05:38:08.084Z,93.60
2017-08-14T05:40:35.556Z,93.60
2017-08-14T05:43:03.018Z,93.70
2017-08-14T05:45:30.489Z,93.70
2017-08-14T05:47:58.739Z,94.00
2017-08-14T05:50:26.206Z,94.00
2017-08-14T05:52:53.668Z,94.40
2017-08-14T05:55:21.146Z,94.50
2017-08-14T05:57:49.371Z,94.40
2017-08-14T06:00:16.838Z,94.40
2017-08-14T06:02:44.327Z,94.50
2017-08-14T06:05:12.599Z,94.70
2017-08-14T06:07:40.076Z,94.60
2017-08-14T06:10:08.331Z,94.70
2017-08-14T06:12:35.794Z,94.70
2017-08-14T06:15:03.279Z,94.70
2017-08-14T06:17:30.738Z,94.70
2017-08-14T06:19:58.219Z,94.80
2017-08-14T06:22:25.690Z,94.80
2017-08-14T06:24:53.169Z,95.00
2017-08-14T06:27:20.631Z,95.10
2017-08-14T06:29:48.115Z,95.10
2017-08-14T06:32:16.351Z,95.00
2017-08-14T06:34:43.819Z,95.00
2017-08-14T06:37:11.292Z,95.10
2017-08-14T06:39:38.767Z,95.00
2017-08-14T06:42:07.006Z,95.00
2017-08-14T06:44:34.484Z,94.90
2017-08-14T06:47:01.948Z,95.00
2017-08-14T06:49:30.187Z,94.30
2017-08-14T06:52:07.529Z,94.20
2017-08-14T06:54:35.003Z,94.80
2017-08-14T06:57:02.468Z,94.50
2017-08-14T06:59:29.939Z,94.10
2017-08-14T07:01:57.414Z,93.90
2017-08-14T07:04:24.884Z,94.60
2017-08-14T07:06:52.373Z,93.60
2017-08-14T07:09:20.610Z,93.30
2017-08-14T07:11:48.082Z,93.00
2017-08-14T07:14:15.547Z,93.10
2017-08-14T07:16:43.033Z,92.60
2017-08-14T07:19:11.641Z,93.00
2017-08-14T07:21:39.107Z,93.00
2017-08-14T07:24:06.586Z,92.60
2017-08-14T07:26:34.056Z,92.10
2017-08-14T07:29:01.526Z,92.30
2017-08-14T07:31:28.995Z,91.80
2017-08-14T07:33:57.235Z,91.30
2017-08-14T07:36:24.703Z,91.20
2017-08-14T07:38:52.159Z,91.10
2017-08-14T07:41:19.637Z,90.50
2017-08-14T07:43:47.086Z,89.90
2017-08-14T07:46:14.554Z,89.00
2017-08-14T07:48:42.791Z,89.90
2017-08-14T07:51:10.265Z,89.40
2017-08-14T07:53:37.723Z,87.60
2017-08-14T07:56:05.193Z,86.10
2017-08-14T07:58:32.655Z,85.70
2017-08-14T08:01:00.122Z,86.80
2017-08-14T08:03:27.578Z,86.00
2017-08-14T08:05:55.038Z,86.00
2017-08-14T08:08:23.267Z,86.50
2017-08-14T08:10:50.760Z,86.50
2017-08-14T08:13:18.215Z,85.60
2017-08-14T08:15:45.671Z,83.10
2017-08-14T08:18:13.141Z,83.50
2017-08-14T08:20:40.628Z,83.90
2017-08-14T08:23:08.101Z,83.80
2017-08-14T08:25:35.566Z,82.50
2017-08-14T08:28:03.034Z,80.10
2017-08-14T08:30:30.499Z,81.30
2017-08-14T08:32:57.967Z,80.40
2017-08-14T08:35:25.424Z,81.60
2017-08-14T08:37:52.887Z,82.20
2017-08-14T08:40:20.354Z,82.00
2017-08-14T08:42:47.821Z,81.50
2017-08-14T08:45:15.279Z,80.90
2017-08-14T08:47:42.770Z,81.50
2017-08-14T08:50:10.660Z,81.00
2017-08-14T08:52:38.122Z,79.90
2017-08-14T08:55:05.592Z,77.00
2017-08-14T08:57:33.056Z,76.50
2017-08-14T09:00:00.520Z,77.00
2017-08-14T09:02:27.990Z,76.10
2017-08-14T09:04:55.451Z,76.20
2017-08-14T09:07:22.923Z,74.60
2017-08-14T09:09:51.155Z,76.00
2017-08-14T09:12:18.623Z,75.10
2017-08-14T09:14:46.079Z,74.20
2017-08-14T09:17:13.555Z,73.00
2017-08-14T09:19:41.012Z,73.80
2017-08-14T09:22:08.493Z,73.20
2017-08-14T09:24:35.949Z,71.90
2017-08-14T09:27:04.680Z,71.70
2017-08-14T09:29:32.141Z,71.70
2017-08-14T09:31:59.602Z,71.70
2017-08-14T09:34:27.067Z,70.30
2017-08-14T09:37:00.960Z,69.40
2017-08-14T09:39:28.430Z,71.30
2017-08-14T09:41:55.884Z,69.50
2017-08-14T09:44:23.357Z,69.90
2017-08-14T09:46:50.815Z,69.50
2017-08-14T09:49:18.291Z,68.90
2017-08-14T09:51:45.755Z,71.40
2017-08-14T09:54:13.220Z,69.60
2017-08-14T09:56:40.702Z,67.20
2017-08-14T09:59:08.185Z,67.60
2017-08-14T10:01:35.633Z,67.30
2017-08-14T10:04:03.104Z,65.80
2017-08-14T10:06:30.558Z,67.10
2017-08-14T10:08:58.034Z,65.80
2017-08-14T10:11:25.495Z,66.30
2017-08-14T10:13:52.958Z,64.80
2017-08-14T10:16:20.423Z,67.30
2017-08-14T10:18:47.942Z,68.10
2017-08-14T10:21:15.404Z,66.10
2017-08-14T10:23:42.871Z,64.80
2017-08-14T10:26:10.331Z,64.50
2017-08-14T10:28:37.875Z,66.40
2017-08-14T10:31:05.330Z,63.90
2017-08-14T10:33:32.799Z,62.90
2017-08-14T10:36:00.264Z,63.70
2017-08-14T10:38:27.741Z,63.90
2017-08-14T10:40:55.196Z,63.20
2017-08-14T10:43:22.663Z,63.00
2017-08-14T10:45:50.131Z,64.10
2017-08-14T10:48:17.579Z,63.00
2017-08-14T10:50:45.047Z,63.60
2017-08-14T10:53:12.552Z,61.30
2017-08-14T10:55:40.123Z,63.10
2017-08-14T10:58:07.583Z,63.40
2017-08-14T11:00:35.047Z,64.20
2017-08-14T11:03:02.511Z,62.30
2017-08-14T11:05:29.974Z,59.80
2017-08-14T11:07:57.444Z,60.80
2017-08-14T11:10:24.912Z,63.00
2017-08-14T11:12:52.367Z,58.60
2017-08-14T11:15:19.835Z,60.50
2017-08-14T11:17:47.376Z,61.30
2017-08-14T11:20:14.878Z,61.10
2017-08-14T11:22:43.116Z,60.20
2017-08-14T11:25:10.639Z,60.10
2017-08-14T11:27:38.516Z,57.70
2017-08-14T11:30:05.973Z,59.30
2017-08-14T11:32:33.436Z,57.90
2017-08-14T11:35:00.916Z,58.50
2017-08-14T11:37:28.378Z,60.30
2017-08-14T11:39:55.834Z,58.30
2017-08-14T11:42:23.316Z,59.00
2017-08-14T11:44:50.774Z,60.10
2017-08-14T11:47:18.245Z,56.90
2017-08-14T11:49:46.466Z,58.60
2017-08-14T11:52:13.943Z,58.60
2017-08-14T11:54:41.407Z,58.40
2017-08-14T11:57:08.887Z,57.60
2017-08-14T11:59:36.348Z,59.00
2017-08-14T12:02:03.808Z,57.60
2017-08-14T12:04:32.050Z,57.90
2017-08-14T12:06:59.518Z,58.10
2017-08-14T12:09:26.974Z,58.10
2017-08-14T12:11:54.447Z,56.70
2017-08-14T12:14:21.908Z,57.40
2017-08-14T12:16:49.375Z,56.00
2017-08-14T12:19:17.608Z,55.30
2017-08-14T12:21:45.076Z,55.20
2017-08-14T12:24:12.538Z,55.10
2017-08-14T12:26:40.011Z,57.90
2017-08-14T12:29:07.484Z,55.80
2017-08-14T12:31:34.939Z,54.60
2017-08-14T12:34:02.396Z,59.20
2017-08-14T12:36:29.863Z,55.90
2017-08-14T12:38:58.086Z,56.60
2017-08-14T12:41:25.556Z,56.50
2017-08-14T12:43:53.015Z,56.60
2017-08-14T12:46:20.489Z,56.70
2017-08-14T12:48:47.947Z,58.60
2017-08-14T12:51:16.032Z,58.10
2017-08-14T12:53:43.486Z,56.30
2017-08-14T12:56:10.966Z,57.70
2017-08-14T12:58:39.196Z,56.30
2017-08-14T13:01:06.651Z,56.20
2017-08-14T13:03:34.133Z,56.50
2017-08-14T13:06:01.596Z,56.10
2017-08-14T13:08:29.063Z,55.70
2017-08-14T13:10:56.524Z,55.10
2017-08-14T13:13:23.990Z,55.40
2017-08-14T13:15:52.210Z,58.70
2017-08-14T13:18:19.679Z,58.60
2017-08-14T13:20:47.171Z,55.40
2017-08-14T13:23:14.643Z,55.70
2017-08-14T13:25:42.872Z,55.20
2017-08-14T13:28:10.331Z,55.30
2017-08-14T13:30:37.799Z,54.40
2017-08-14T13:33:05.276Z,52.50
2017-08-14T13:35:32.749Z,52.20
2017-08-14T13:38:00.214Z,53.70
2017-08-14T13:40:27.683Z,51.90
2017-08-14T13:42:55.146Z,52.70
2017-08-14T13:45:22.621Z,54.10
2017-08-14T13:47:50.083Z,53.80
2017-08-14T13:50:17.562Z,53.80
2017-08-14T13:52:45.039Z,53.40
2017-08-14T13:55:12.516Z,56.20
2017-08-14T13:57:40.739Z,54.00
2017-08-14T14:00:08.227Z,54.10
2017-08-14T14:02:35.674Z,53.90
2017-08-14T14:05:03.144Z,52.30
2017-08-14T14:07:30.598Z,53.60
2017-08-14T14:09:58.091Z,53.00
2017-08-14T14:12:26.321Z,54.60
2017-08-14T14:14:53.871Z,54.60
2017-08-14T14:17:21.376Z,54.80
2017-08-14T14:19:48.866Z,54.60
2017-08-14T14:22:16.958Z,55.20
2017-08-14T14:24:44.444Z,55.00
2017-08-14T14:27:11.907Z,55.20
2017-08-14T14:29:39.462Z,55.20
2017-08-14T14:32:06.986Z,55.00
2017-08-14T14:34:34.541Z,55.40
2017-08-14T14:37:02.015Z,54.10
2017-08-14T14:39:29.475Z,52.90
2017-08-14T14:41:56.955Z,53.30
2017-08-14T14:44:24.417Z,54.40
2017-08-14T14:46:51.886Z,54.00
2017-08-14T14:49:19.937Z,53.60
2017-08-14T14:51:47.408Z,53.70
2017-08-14T14:54:14.866Z,53.40
2017-08-14T14:56:42.339Z,53.00
2017-08-14T14:59:09.897Z,53.50
2017-08-14T15:01:37.363Z,52.80
2017-08-14T15:04:05.663Z,55.60
2017-08-14T15:06:33.895Z,53.90
2017-08-14T15:09:01.352Z,53.90
2017-08-14T15:11:28.811Z,56.40
2017-08-14T15:13:56.293Z,54.60
2017-08-14T15:16:23.765Z,55.90
2017-08-14T15:18:52.003Z,55.70
2017-08-14T15:21:19.472Z,55.00
2017-08-14T15:23:46.939Z,56.00
2017-08-14T15:26:14.409Z,56.40
2017-08-14T15:28:42.657Z,57.40
2017-08-14T15:31:10.123Z,57.30
2017-08-14T15:33:37.687Z,55.20
2017-08-14T15:36:05.163Z,56.40
2017-08-14T15:38:33.417Z,58.10
2017-08-14T15:41:01.678Z,56.60
2017-08-14T15:43:29.143Z,56.40
2017-08-14T15:45:56.625Z,57.60
2017-08-14T15:48:24.918Z,57.80
2017-08-14T15:50:53.143Z,58.00
2017-08-14T15:53:21.636Z,57.90
2017-08-14T15:55:49.121Z,58.90
2017-08-14T15:58:17.461Z,58.00
2017-08-14T16:00:44.930Z,57.30
2017-08-14T16:03:12.397Z,59.40
2017-08-14T16:05:39.955Z,58.60
2017-08-14T16:08:07.418Z,57.60
2017-08-14T16:10:35.443Z,59.90
2017-08-14T16:13:02.905Z,57.60
2017-08-14T16:15:30.371Z,55.90
2017-08-14T16:17:57.826Z,56.40
2017-08-14T16:20:25.298Z,55.00
2017-08-14T16:22:52.754Z,56.70
2017-08-14T16:25:20.230Z,56.30
2017-08-14T16:27:47.695Z,57.10
2017-08-14T16:30:21.427Z,58.70
2017-08-14T16:32:49.657Z,57.70
2017-08-14T16:35:17.227Z,57.60
2017-08-14T16:37:44.678Z,58.70
2017-08-14T16:40:12.330Z,58.10
2017-08-14T16:42:39.809Z,57.30
2017-08-14T16:45:07.282Z,57.80
2017-08-14T16:47:34.746Z,58.50
2017-08-14T16:50:02.297Z,59.50
2017-08-14T16:52:29.751Z,57.20
2017-08-14T16:54:57.215Z,57.00
2017-08-14T16:57:24.683Z,57.00
2017-08-14T16:59:52.173Z,58.10
2017-08-14T17:02:19.719Z,57.40
2017-08-14T17:04:47.955Z,58.50
2017-08-14T17:07:15.419Z,58.50
2017-08-14T17:09:42.877Z,58.80
2017-08-14T17:12:10.339Z,58.70
2017-08-14T17:14:37.799Z,58.10
2017-08-14T17:17:05.276Z,59.50
2017-08-14T17:19:33.534Z,59.70
2017-08-14T17:22:01.057Z,59.70
2017-08-14T17:24:29.830Z,59.70
2017-08-14T17:26:57.350Z,61.20
2017-08-14T17:29:24.860Z,61.80
2017-08-14T17:31:52.371Z,61.70
2017-08-14T17:34:19.823Z,61.80
2017-08-14T17:36:47.299Z,61.70
2017-08-14T17:39:16.031Z,62.90
2017-08-14T17:41:43.503Z,62.80
2017-08-14T17:44:10.969Z,61.10
2017-08-14T17:46:38.497Z,62.90
2017-08-14T17:49:05.977Z,64.20
2017-08-14T17:51:33.431Z,64.90
2017-08-14T17:54:00.906Z,64.30
2017-08-14T17:56:28.904Z,64.20
2017-08-14T17:58:57.190Z,65.50
2017-08-14T18:01:25.424Z,64.10
2017-08-14T18:03:52.965Z,64.00
2017-08-14T18:06:21.029Z,63.80
2017-08-14T18:08:48.552Z,64.70
2017-08-14T18:11:16.775Z,65.30
2017-08-14T18:13:44.965Z,65.20
2017-08-14T18:16:12.447Z,65.30
2017-08-14T18:18:39.914Z,65.20
2017-08-14T18:21:07.382Z,64.60
2017-08-14T18:23:35.706Z,63.60
2017-08-14T18:26:03.171Z,63.50
2017-08-14T18:28:30.851Z,64.80
2017-08-14T18:30:58.335Z,65.10
2017-08-14T18:33:25.804Z,65.30
2017-08-14T18:35:53.328Z,66.10
2017-08-14T18:38:21.512Z,66.40
2017-08-14T18:40:49.015Z,66.60
2017-08-14T18:43:16.485Z,67.30
2017-08-14T18:45:50.805Z,67.00
2017-08-14T18:48:18.263Z,67.80
2017-08-14T18:50:45.747Z,68.00
2017-08-14T18:53:13.245Z,68.10
2017-08-14T18:55:41.809Z,69.00
2017-08-14T18:58:09.263Z,68.90
2017-08-14T19:00:36.729Z,69.70
2017-08-14T19:03:04.191Z,70.10
2017-08-14T19:05:31.716Z,70.60
2017-08-14T19:08:01.072Z,71.30
2017-08-14T19:10:26.660Z,71.60
2017-08-14T19:12:54.952Z,72.20
2017-08-14T19:15:23.197Z,72.70
2017-08-14T19:17:50.710Z,72.40
2017-08-14T19:20:19.072Z,73.00
2017-08-14T19:22:47.303Z,73.90
2017-08-14T19:25:15.555Z,73.20
2017-08-14T19:27:43.055Z,73.40
2017-08-14T19:30:10.561Z,73.80
2017-08-14T19:32:38.027Z,74.50
2017-08-14T19:35:05.500Z,74.30
2017-08-14T19:37:32.974Z,74.50
2017-08-14T19:40:00.436Z,75.00
2017-08-14T19:42:27.910Z,74.80
2017-08-14T19:44:55.450Z,74.50
2017-08-14T19:47:22.930Z,75.30
2017-08-14T19:49:50.404Z,74.80
2017-08-14T19:52:18.644Z,76.90
2017-08-14T19:54:46.106Z,76.10
2017-08-14T19:57:14.454Z,76.10
2017-08-14T19:59:41.919Z,76.40
2017-08-14T20:02:09.443Z,77.10
2017-08-14T20:04:37.672Z,77.60
2017-08-14T20:07:05.171Z,77.60
2017-08-14T20:09:32.628Z,78.20
2017-08-14T20:12:00.895Z,79.80
2017-08-14T20:14:28.368Z,79.30
2017-08-14T20:16:56.627Z,80.30
2017-08-14T20:19:24.145Z,80.20
2017-08-14T20:21:51.727Z,80.00
2017-08-14T20:24:19.198Z,80.90
2017-08-14T20:26:46.685Z,80.50
2017-08-14T20:29:14.162Z,79.80
2017-08-14T20:31:41.633Z,79.90
2017-08-14T20:34:09.110Z,80.60
2017-08-14T20:36:37.359Z,80.20
2017-08-14T20:39:04.824Z,80.60
2017-08-14T20:41:32.904Z,80.20
2017-08-14T20:44:00.662Z,80.90
2017-08-14T20:46:28.408Z,81.50
2017-08-14T20:48:56.879Z,81.30
2017-08-14T20:51:25.106Z,81.40
2017-08-14T20:53:53.343Z,81.40
2017-08-14T20:56:20.828Z,81.40
2017-08-14T20:58:48.547Z,81.30
2017-08-14T21:01:16.736Z,82.00
2017-08-14T21:03:45.287Z,81.40
2017-08-14T21:06:12.739Z,81.40
2017-08-14T21:08:40.322Z,81.50
2017-08-14T21:11:07.810Z,82.00
2017-08-14T21:13:35.271Z,82.20
2017-08-14T21:16:02.750Z,82.20
2017-08-14T21:18:36.800Z,82.40
2017-08-14T21:21:04.287Z,82.60
2017-08-14T21:23:31.884Z,82.30
2017-08-14T21:25:59.476Z,82.30
2017-08-14T21:28:26.939Z,81.90
2017-08-14T21:30:54.420Z,81.30
2017-08-14T21:33:22.651Z,81.10
2017-08-14T21:35:50.127Z,81.00
2017-08-14T21:38:17.588Z,81.20
2017-08-14T21:40:45.678Z,81.30
2017-08-14T21:43:13.593Z,81.20
2017-08-14T21:45:41.626Z,81.40
2017-08-14T21:48:09.668Z,81.10
2017-08-14T21:50:37.769Z,81.60
2017-08-14T21:53:05.264Z,81.50
2017-08-14T21:55:33.543Z,81.70
2017-08-14T21:58:01.004Z,81.30
2017-08-14T22:00:28.476Z,81.10
2017-08-14T22:02:55.940Z,81.30
2017-08-14T22:05:23.411Z,81.40
2017-08-14T22:07:50.879Z,81.20
2017-08-14T22:10:18.360Z,82.10
2017-08-14T22:12:45.866Z,81.60
2017-08-14T22:15:14.248Z,81.50
2017-08-14T22:17:41.715Z,82.50
2017-08-14T22:20:09.195Z,81.60
2017-08-14T22:22:36.765Z,82.40
2017-08-14T22:25:05.024Z,82.90
2017-08-14T22:27:32.499Z,82.90
2017-08-14T22:30:00.735Z,84.10
2017-08-14T22:32:28.207Z,84.10
2017-08-14T22:34:55.675Z,83.20
2017-08-14T22:37:23.144Z,82.90
2017-08-14T22:39:51.383Z,84.70
2017-08-14T22:42:18.856Z,83.80
2017-08-14T22:44:46.311Z,82.60
2017-08-14T22:47:13.779Z,82.00
2017-08-14T22:49:41.234Z,81.70
2017-08-14T22:52:08.703Z,82.40
2017-08-14T22:54:36.170Z,81.50
2017-08-14T22:57:04.415Z,82.40
2017-08-14T22:59:31.879Z,81.60
2017-08-14T23:01:59.356Z,82.70
2017-08-14T23:04:26.806Z,83.20
2017-08-14T23:06:54.279Z,81.70
2017-08-14T23:09:22.510Z,82.30
2017-08-14T23:11:49.987Z,82.20
2017-08-14T23:14:17.459Z,82.40
2017-08-14T23:16:44.921Z,81.00
2017-08-14T23:19:12.399Z,80.20
2017-08-14T23:21:40.637Z,79.90
2017-08-14T23:24:08.105Z,79.80
2017-08-14T23:26:35.562Z,79.40
2017-08-14T23:29:03.034Z,78.70
2017-08-14T23:31:30.496Z,78.50
2017-08-14T23:33:58.744Z,78.10
2017-08-14T23:36:26.224Z,77.40
2017-08-14T23:38:53.694Z,77.80
2017-08-14T23:41:21.920Z,77.60
2017-08-14T23:43:49.388Z,77.60
2017-08-14T23:46:16.851Z,76.60
2017-08-14T23:48:44.332Z,76.90
2017-08-14T23:51:11.794Z,77.10
2017-08-14T23:53:39.315Z,77.10
2017-08-14T23:56:06.820Z,77.40
2017-08-14T23:58:35.079Z,77.30
